sensor_id;sensor_type;location;lat;lon;timestamp;temperature;humidity
19389;DHT22;9830;41.876;23.474;2023-05-07T00:00:00;6.90;99.90
19389;DHT22;9830;41.876;23.474;2023-05-07T00:02:26;6.80;99.90
19389;DHT22;9830;41.876;23.474;2023-05-07T00:04:52;6.80;99.90
19389;DHT22;9830;41.876;23.474;2023-05-07T00:07:18;6.60;99.90
19389;DHT22;9830;41.876;23.474;2023-05-07T00:09:43;6.50;99.90
19389;DHT22;9830;41.876;23.474;2023-05-07T00:12:09;6.60;99.90
19389;DHT22;9830;41.876;23.474;2023-05-07T00:14:35;6.60;99.90
19389;DHT22;9830;41.876;23.474;2023-05-07T00:17:01;6.40;99.90
19389;DHT22;9830;41.876;23.474;2023-05-07T00:19:26;6.30;99.90
19389;DHT22;9830;41.876;23.474;2023-05-07T00:21:52;6.30;99.90
19389;DHT22;9830;41.876;23.474;2023-05-07T00:24:22;6.30;99.90
19389;DHT22;9830;41.876;23.474;2023-05-07T00:26:47;6.30;99.90
19389;DHT22;9830;41.876;23.474;2023-05-07T00:29:13;6.30;99.90
19389;DHT22;9830;41.876;23.474;2023-05-07T00:31:38;6.30;99.90
19389;DHT22;9830;41.876;23.474;2023-05-07T00:34:04;6.20;99.90
19389;DHT22;9830;41.876;23.474;2023-05-07T00:36:30;6.20;99.90
19389;DHT22;9830;41.876;23.474;2023-05-07T00:38:57;6.20;99.90
19389;DHT22;9830;41.876;23.474;2023-05-07T00:41:24;6.10;99.90
19389;DHT22;9830;41.876;23.474;2023-05-07T00:43:50;6.00;99.90
19389;DHT22;9830;41.876;23.474;2023-05-07T00:46:17;6.00;99.90
19389;DHT22;9830;41.876;23.474;2023-05-07T00:48:43;6.00;99.90
19389;DHT22;9830;41.876;23.474;2023-05-07T00:51:10;6.00;99.90
19389;DHT22;9830;41.876;23.474;2023-05-07T00:53:37;5.90;99.90
19389;DHT22;9830;41.876;23.474;2023-05-07T00:56:02;5.80;99.90
19389;DHT22;9830;41.876;23.474;2023-05-07T00:58:28;5.70;99.90
19389;DHT22;9830;41.876;23.474;2023-05-07T01:00:54;5.70;99.90
19389;DHT22;9830;41.876;23.474;2023-05-07T01:03:20;5.70;99.90
19389;DHT22;9830;41.876;23.474;2023-05-07T01:05:48;5.70;99.90
19389;DHT22;9830;41.876;23.474;2023-05-07T01:08:14;5.70;99.90
19389;DHT22;9830;41.876;23.474;2023-05-07T01:10:40;5.60;99.90
19389;DHT22;9830;41.876;23.474;2023-05-07T01:13:12;5.60;99.90
19389;DHT22;9830;41.876;23.474;2023-05-07T01:15:38;5.60;99.90
19389;DHT22;9830;41.876;23.474;2023-05-07T01:18:04;5.60;99.90
19389;DHT22;9830;41.876;23.474;2023-05-07T01:20:30;5.50;99.90
19389;DHT22;9830;41.876;23.474;2023-05-07T01:22:57;5.40;99.90
19389;DHT22;9830;41.876;23.474;2023-05-07T01:25:23;5.40;99.90
19389;DHT22;9830;41.876;23.474;2023-05-07T01:27:49;5.30;99.90
19389;DHT22;9830;41.876;23.474;2023-05-07T01:30:16;5.30;99.90
19389;DHT22;9830;41.876;23.474;2023-05-07T01:32:43;5.30;99.90
19389;DHT22;9830;41.876;23.474;2023-05-07T01:35:18;5.30;99.90
19389;DHT22;9830;41.876;23.474;2023-05-07T01:37:46;5.30;99.90
19389;DHT22;9830;41.876;23.474;2023-05-07T01:40:12;5.20;99.90
19389;DHT22;9830;41.876;23.474;2023-05-07T01:42:38;5.20;99.90
19389;DHT22;9830;41.876;23.474;2023-05-07T01:45:04;5.20;99.90
19389;DHT22;9830;41.876;23.474;2023-05-07T01:47:30;5.20;99.90
19389;DHT22;9830;41.876;23.474;2023-05-07T01:49:57;5.20;99.90
19389;DHT22;9830;41.876;23.474;2023-05-07T01:52:23;5.10;99.90
19389;DHT22;9830;41.876;23.474;2023-05-07T01:54:50;5.10;99.90
19389;DHT22;9830;41.876;23.474;2023-05-07T01:57:16;5.10;99.90
19389;DHT22;9830;41.876;23.474;2023-05-07T01:59:41;5.00;99.90
19389;DHT22;9830;41.876;23.474;2023-05-07T02:02:07;5.00;99.90
19389;DHT22;9830;41.876;23.474;2023-05-07T02:04:33;4.90;99.90
19389;DHT22;9830;41.876;23.474;2023-05-07T02:06:58;5.00;99.90
19389;DHT22;9830;41.876;23.474;2023-05-07T02:09:24;4.80;99.90
19389;DHT22;9830;41.876;23.474;2023-05-07T02:11:50;4.80;99.90
19389;DHT22;9830;41.876;23.474;2023-05-07T02:14:15;4.80;99.90
19389;DHT22;9830;41.876;23.474;2023-05-07T02:16:41;4.90;99.90
19389;DHT22;9830;41.876;23.474;2023-05-07T02:19:07;4.90;99.90
19389;DHT22;9830;41.876;23.474;2023-05-07T02:21:32;4.80;99.90
19389;DHT22;9830;41.876;23.474;2023-05-07T02:23:58;4.80;99.90
19389;DHT22;9830;41.876;23.474;2023-05-07T02:26:24;4.80;99.90
19389;DHT22;9830;41.876;23.474;2023-05-07T02:28:51;4.80;99.90
19389;DHT22;9830;41.876;23.474;2023-05-07T02:31:17;4.90;99.90
19389;DHT22;9830;41.876;23.474;2023-05-07T02:33:42;4.90;99.90
19389;DHT22;9830;41.876;23.474;2023-05-07T02:36:09;4.90;99.90
19389;DHT22;9830;41.876;23.474;2023-05-07T02:38:35;4.80;99.90
19389;DHT22;9830;41.876;23.474;2023-05-07T02:41:01;4.70;99.90
19389;DHT22;9830;41.876;23.474;2023-05-07T02:43:27;4.60;99.90
19389;DHT22;9830;41.876;23.474;2023-05-07T02:46:06;4.60;99.90
19389;DHT22;9830;41.876;23.474;2023-05-07T02:48:33;4.60;99.90
19389;DHT22;9830;41.876;23.474;2023-05-07T02:50:59;4.50;99.90
19389;DHT22;9830;41.876;23.474;2023-05-07T02:53:25;4.50;99.90
19389;DHT22;9830;41.876;23.474;2023-05-07T02:55:53;4.50;99.90
19389;DHT22;9830;41.876;23.474;2023-05-07T02:58:19;4.50;99.90
19389;DHT22;9830;41.876;23.474;2023-05-07T03:00:45;4.50;99.90
19389;DHT22;9830;41.876;23.474;2023-05-07T03:03:11;4.50;99.90
19389;DHT22;9830;41.876;23.474;2023-05-07T03:05:36;4.50;99.90
19389;DHT22;9830;41.876;23.474;2023-05-07T03:08:02;4.50;99.90
19389;DHT22;9830;41.876;23.474;2023-05-07T03:10:29;4.40;99.90
19389;DHT22;9830;41.876;23.474;2023-05-07T03:12:55;4.30;99.90
19389;DHT22;9830;41.876;23.474;2023-05-07T03:15:21;4.20;99.90
19389;DHT22;9830;41.876;23.474;2023-05-07T03:17:50;4.20;99.90
19389;DHT22;9830;41.876;23.474;2023-05-07T03:20:15;4.20;99.90
19389;DHT22;9830;41.876;23.474;2023-05-07T03:22:41;4.20;99.90
19389;DHT22;9830;41.876;23.474;2023-05-07T03:25:07;4.30;99.90
19389;DHT22;9830;41.876;23.474;2023-05-07T03:27:33;4.40;99.90
19389;DHT22;9830;41.876;23.474;2023-05-07T03:29:59;4.50;99.90
19389;DHT22;9830;41.876;23.474;2023-05-07T03:32:25;4.50;99.90
19389;DHT22;9830;41.876;23.474;2023-05-07T03:34:51;4.60;99.90
19389;DHT22;9830;41.876;23.474;2023-05-07T03:37:17;4.60;99.90
19389;DHT22;9830;41.876;23.474;2023-05-07T03:39:43;4.70;99.90
19389;DHT22;9830;41.876;23.474;2023-05-07T03:42:09;4.90;99.90
19389;DHT22;9830;41.876;23.474;2023-05-07T03:44:34;4.90;99.90
19389;DHT22;9830;41.876;23.474;2023-05-07T03:47:02;5.10;99.90
19389;DHT22;9830;41.876;23.474;2023-05-07T03:49:28;5.10;99.90
19389;DHT22;9830;41.876;23.474;2023-05-07T03:51:53;5.50;99.90
19389;DHT22;9830;41.876;23.474;2023-05-07T03:54:19;5.90;99.90
19389;DHT22;9830;41.876;23.474;2023-05-07T03:56:45;6.60;99.90
19389;DHT22;9830;41.876;23.474;2023-05-07T03:59:11;7.30;99.90
19389;DHT22;9830;41.876;23.474;2023-05-07T04:01:37;8.00;99.90
19389;DHT22;9830;41.876;23.474;2023-05-07T04:04:02;8.30;99.90
19389;DHT22;9830;41.876;23.474;2023-05-07T04:06:29;8.30;99.90
19389;DHT22;9830;41.876;23.474;2023-05-07T04:08:55;9.60;99.90
19389;DHT22;9830;41.876;23.474;2023-05-07T04:11:21;10.30;99.90
19389;DHT22;9830;41.876;23.474;2023-05-07T04:13:47;9.90;99.90
19389;DHT22;9830;41.876;23.474;2023-05-07T04:16:12;10.10;99.90
19389;DHT22;9830;41.876;23.474;2023-05-07T04:18:38;10.30;99.90
19389;DHT22;9830;41.876;23.474;2023-05-07T04:21:04;10.90;99.90
19389;DHT22;9830;41.876;23.474;2023-05-07T04:23:30;11.00;99.90
19389;DHT22;9830;41.876;23.474;2023-05-07T04:25:56;11.50;99.90
19389;DHT22;9830;41.876;23.474;2023-05-07T04:28:22;12.30;99.90
19389;DHT22;9830;41.876;23.474;2023-05-07T04:30:48;12.20;99.90
19389;DHT22;9830;41.876;23.474;2023-05-07T04:33:14;12.30;99.90
19389;DHT22;9830;41.876;23.474;2023-05-07T04:35:42;12.40;99.90
19389;DHT22;9830;41.876;23.474;2023-05-07T04:38:08;13.10;99.90
19389;DHT22;9830;41.876;23.474;2023-05-07T04:40:35;13.60;99.90
19389;DHT22;9830;41.876;23.474;2023-05-07T04:43:01;15.60;97.70
19389;DHT22;9830;41.876;23.474;2023-05-07T04:45:27;16.50;94.70
19389;DHT22;9830;41.876;23.474;2023-05-07T04:47:52;16.40;93.20
19389;DHT22;9830;41.876;23.474;2023-05-07T04:50:18;16.50;94.10
19389;DHT22;9830;41.876;23.474;2023-05-07T04:52:45;16.70;91.40
19389;DHT22;9830;41.876;23.474;2023-05-07T04:55:11;16.70;92.90
19389;DHT22;9830;41.876;23.474;2023-05-07T04:57:36;16.10;94.50
19389;DHT22;9830;41.876;23.474;2023-05-07T05:00:04;16.20;94.90
19389;DHT22;9830;41.876;23.474;2023-05-07T05:02:30;16.00;95.80
19389;DHT22;9830;41.876;23.474;2023-05-07T05:04:55;16.50;94.60
19389;DHT22;9830;41.876;23.474;2023-05-07T05:07:21;17.10;93.10
19389;DHT22;9830;41.876;23.474;2023-05-07T05:09:46;17.60;88.80
19389;DHT22;9830;41.876;23.474;2023-05-07T05:12:12;18.00;88.30
19389;DHT22;9830;41.876;23.474;2023-05-07T05:14:38;18.50;79.80
19389;DHT22;9830;41.876;23.474;2023-05-07T05:17:03;18.50;81.90
19389;DHT22;9830;41.876;23.474;2023-05-07T05:19:29;18.30;87.60
19389;DHT22;9830;41.876;23.474;2023-05-07T05:21:55;18.00;88.30
19389;DHT22;9830;41.876;23.474;2023-05-07T05:24:20;18.60;84.10
19389;DHT22;9830;41.876;23.474;2023-05-07T05:26:46;19.00;85.90
19389;DHT22;9830;41.876;23.474;2023-05-07T05:29:12;18.70;77.10
19389;DHT22;9830;41.876;23.474;2023-05-07T05:31:37;19.10;76.80
19389;DHT22;9830;41.876;23.474;2023-05-07T05:34:03;19.40;71.40
19389;DHT22;9830;41.876;23.474;2023-05-07T05:36:29;19.50;74.70
19389;DHT22;9830;41.876;23.474;2023-05-07T05:38:56;19.90;71.70
19389;DHT22;9830;41.876;23.474;2023-05-07T05:41:21;19.40;73.40
19389;DHT22;9830;41.876;23.474;2023-05-07T05:43:48;22.50;57.70
19389;DHT22;9830;41.876;23.474;2023-05-07T05:46:14;22.50;52.80
19389;DHT22;9830;41.876;23.474;2023-05-07T05:48:40;21.50;63.00
19389;DHT22;9830;41.876;23.474;2023-05-07T05:51:06;20.50;66.10
19389;DHT22;9830;41.876;23.474;2023-05-07T05:53:31;20.10;69.60
19389;DHT22;9830;41.876;23.474;2023-05-07T05:55:57;22.60;57.60
19389;DHT22;9830;41.876;23.474;2023-05-07T05:58:23;23.40;51.20
19389;DHT22;9830;41.876;23.474;2023-05-07T06:00:48;21.50;58.30
19389;DHT22;9830;41.876;23.474;2023-05-07T06:03:17;21.60;57.20
19389;DHT22;9830;41.876;23.474;2023-05-07T06:05:43;21.50;58.90
19389;DHT22;9830;41.876;23.474;2023-05-07T06:08:08;21.20;60.40
19389;DHT22;9830;41.876;23.474;2023-05-07T06:10:36;22.10;56.70
19389;DHT22;9830;41.876;23.474;2023-05-07T06:13:02;23.50;50.40
19389;DHT22;9830;41.876;23.474;2023-05-07T06:15:28;25.40;45.90
19389;DHT22;9830;41.876;23.474;2023-05-07T06:17:53;25.50;44.00
19389;DHT22;9830;41.876;23.474;2023-05-07T06:20:21;24.40;48.00
19389;DHT22;9830;41.876;23.474;2023-05-07T06:22:46;24.20;52.00
19389;DHT22;9830;41.876;23.474;2023-05-07T06:25:12;25.40;46.00
19389;DHT22;9830;41.876;23.474;2023-05-07T06:27:38;27.10;41.80
19389;DHT22;9830;41.876;23.474;2023-05-07T06:30:05;26.80;40.00
19389;DHT22;9830;41.876;23.474;2023-05-07T06:32:31;27.90;38.70
19389;DHT22;9830;41.876;23.474;2023-05-07T06:34:57;27.70;38.90
19389;DHT22;9830;41.876;23.474;2023-05-07T06:37:23;27.40;37.90
19389;DHT22;9830;41.876;23.474;2023-05-07T06:39:48;26.50;39.10
19389;DHT22;9830;41.876;23.474;2023-05-07T06:42:14;26.30;40.10
19389;DHT22;9830;41.876;23.474;2023-05-07T06:44:39;26.70;39.90
19389;DHT22;9830;41.876;23.474;2023-05-07T06:47:05;27.10;39.00
19389;DHT22;9830;41.876;23.474;2023-05-07T06:49:31;28.40;36.10
19389;DHT22;9830;41.876;23.474;2023-05-07T06:51:57;27.50;37.70
19389;DHT22;9830;41.876;23.474;2023-05-07T06:54:23;27.90;37.30
19389;DHT22;9830;41.876;23.474;2023-05-07T06:56:48;28.40;37.20
19389;DHT22;9830;41.876;23.474;2023-05-07T06:59:14;28.20;37.10
19389;DHT22;9830;41.876;23.474;2023-05-07T07:01:40;28.00;38.10
19389;DHT22;9830;41.876;23.474;2023-05-07T07:04:06;29.20;36.30
19389;DHT22;9830;41.876;23.474;2023-05-07T07:06:31;29.20;35.40
19389;DHT22;9830;41.876;23.474;2023-05-07T07:08:58;27.50;37.40
19389;DHT22;9830;41.876;23.474;2023-05-07T07:11:24;28.60;38.30
19389;DHT22;9830;41.876;23.474;2023-05-07T07:13:50;30.00;37.40
19389;DHT22;9830;41.876;23.474;2023-05-07T07:16:16;28.20;37.40
19389;DHT22;9830;41.876;23.474;2023-05-07T07:18:42;27.40;39.60
19389;DHT22;9830;41.876;23.474;2023-05-07T07:21:08;26.50;43.80
19389;DHT22;9830;41.876;23.474;2023-05-07T07:23:33;28.20;40.20
19389;DHT22;9830;41.876;23.474;2023-05-07T07:25:59;28.70;38.10
19389;DHT22;9830;41.876;23.474;2023-05-07T07:28:25;30.10;36.70
19389;DHT22;9830;41.876;23.474;2023-05-07T07:30:51;31.10;34.90
19389;DHT22;9830;41.876;23.474;2023-05-07T07:33:16;30.90;35.00
19389;DHT22;9830;41.876;23.474;2023-05-07T07:35:42;30.00;35.90
19389;DHT22;9830;41.876;23.474;2023-05-07T07:38:08;28.60;36.30
19389;DHT22;9830;41.876;23.474;2023-05-07T07:40:36;28.60;40.40
19389;DHT22;9830;41.876;23.474;2023-05-07T07:43:02;28.00;40.40
19389;DHT22;9830;41.876;23.474;2023-05-07T07:45:28;30.80;35.10
19389;DHT22;9830;41.876;23.474;2023-05-07T07:47:54;31.60;33.10
19389;DHT22;9830;41.876;23.474;2023-05-07T07:50:20;31.50;34.00
19389;DHT22;9830;41.876;23.474;2023-05-07T07:52:46;30.40;36.00
19389;DHT22;9830;41.876;23.474;2023-05-07T07:55:12;31.40;33.80
19389;DHT22;9830;41.876;23.474;2023-05-07T07:57:38;31.40;31.40
19389;DHT22;9830;41.876;23.474;2023-05-07T08:00:04;31.10;31.90
19389;DHT22;9830;41.876;23.474;2023-05-07T08:02:31;31.10;32.90
19389;DHT22;9830;41.876;23.474;2023-05-07T08:04:57;31.80;31.10
19389;DHT22;9830;41.876;23.474;2023-05-07T08:07:22;32.40;31.40
19389;DHT22;9830;41.876;23.474;2023-05-07T08:09:48;31.20;33.10
19389;DHT22;9830;41.876;23.474;2023-05-07T08:12:14;31.20;32.30
19389;DHT22;9830;41.876;23.474;2023-05-07T08:14:40;29.20;36.10
19389;DHT22;9830;41.876;23.474;2023-05-07T08:17:06;28.70;37.90
19389;DHT22;9830;41.876;23.474;2023-05-07T08:19:32;29.10;39.20
19389;DHT22;9830;41.876;23.474;2023-05-07T08:21:58;30.20;36.00
19389;DHT22;9830;41.876;23.474;2023-05-07T08:24:23;31.30;34.60
19389;DHT22;9830;41.876;23.474;2023-05-07T08:26:49;33.60;31.80
19389;DHT22;9830;41.876;23.474;2023-05-07T08:29:15;33.00;30.20
19389;DHT22;9830;41.876;23.474;2023-05-07T08:31:41;32.90;31.10
19389;DHT22;9830;41.876;23.474;2023-05-07T08:34:07;31.50;31.90
19389;DHT22;9830;41.876;23.474;2023-05-07T08:36:33;30.80;33.40
19389;DHT22;9830;41.876;23.474;2023-05-07T08:38:59;29.80;34.00
19389;DHT22;9830;41.876;23.474;2023-05-07T08:41:25;30.90;33.60
19389;DHT22;9830;41.876;23.474;2023-05-07T08:43:51;31.50;34.80
19389;DHT22;9830;41.876;23.474;2023-05-07T08:46:21;30.20;34.20
19389;DHT22;9830;41.876;23.474;2023-05-07T08:48:51;33.50;31.80
19389;DHT22;9830;41.876;23.474;2023-05-07T08:51:21;31.80;33.40
19389;DHT22;9830;41.876;23.474;2023-05-07T08:53:48;33.10;31.70
19389;DHT22;9830;41.876;23.474;2023-05-07T08:56:14;32.70;33.10
19389;DHT22;9830;41.876;23.474;2023-05-07T08:58:44;32.50;33.00
19389;DHT22;9830;41.876;23.474;2023-05-07T09:01:14;32.00;33.20
19389;DHT22;9830;41.876;23.474;2023-05-07T09:03:40;31.60;33.80
19389;DHT22;9830;41.876;23.474;2023-05-07T09:06:06;32.00;33.40
19389;DHT22;9830;41.876;23.474;2023-05-07T09:08:35;32.90;33.30
19389;DHT22;9830;41.876;23.474;2023-05-07T09:11:01;33.10;31.50
19389;DHT22;9830;41.876;23.474;2023-05-07T09:13:28;32.70;30.00
19389;DHT22;9830;41.876;23.474;2023-05-07T09:15:54;31.80;31.70
19389;DHT22;9830;41.876;23.474;2023-05-07T09:18:20;31.80;29.50
19389;DHT22;9830;41.876;23.474;2023-05-07T09:20:45;34.20;27.50
19389;DHT22;9830;41.876;23.474;2023-05-07T09:23:11;32.80;26.70
19389;DHT22;9830;41.876;23.474;2023-05-07T09:25:37;33.70;27.20
19389;DHT22;9830;41.876;23.474;2023-05-07T09:28:04;31.70;29.00
19389;DHT22;9830;41.876;23.474;2023-05-07T09:30:33;31.50;30.00
19389;DHT22;9830;41.876;23.474;2023-05-07T09:33:00;31.80;29.70
19389;DHT22;9830;41.876;23.474;2023-05-07T09:35:27;33.00;28.00
19389;DHT22;9830;41.876;23.474;2023-05-07T09:37:57;33.30;28.00
19389;DHT22;9830;41.876;23.474;2023-05-07T09:40:28;33.50;28.00
19389;DHT22;9830;41.876;23.474;2023-05-07T09:42:54;32.20;30.30
19389;DHT22;9830;41.876;23.474;2023-05-07T09:45:26;31.00;31.60
19389;DHT22;9830;41.876;23.474;2023-05-07T09:47:55;29.80;33.20
19389;DHT22;9830;41.876;23.474;2023-05-07T09:50:27;29.90;33.80
19389;DHT22;9830;41.876;23.474;2023-05-07T09:52:55;29.30;34.10
19389;DHT22;9830;41.876;23.474;2023-05-07T09:55:24;29.30;35.20
19389;DHT22;9830;41.876;23.474;2023-05-07T09:57:51;29.70;33.60
19389;DHT22;9830;41.876;23.474;2023-05-07T10:00:19;28.60;34.80
19389;DHT22;9830;41.876;23.474;2023-05-07T10:02:49;28.50;35.20
19389;DHT22;9830;41.876;23.474;2023-05-07T10:05:18;27.50;37.60
19389;DHT22;9830;41.876;23.474;2023-05-07T10:07:45;26.10;37.30
19389;DHT22;9830;41.876;23.474;2023-05-07T10:10:11;26.50;39.90
19389;DHT22;9830;41.876;23.474;2023-05-07T10:12:38;26.90;37.70
19389;DHT22;9830;41.876;23.474;2023-05-07T10:15:08;27.20;38.30
19389;DHT22;9830;41.876;23.474;2023-05-07T10:17:38;27.50;34.20
19389;DHT22;9830;41.876;23.474;2023-05-07T10:20:06;27.70;38.30
19389;DHT22;9830;41.876;23.474;2023-05-07T10:22:41;26.30;39.20
19389;DHT22;9830;41.876;23.474;2023-05-07T10:27:47;24.60;42.80
19389;DHT22;9830;41.876;23.474;2023-05-07T10:30:24;25.50;43.50
19389;DHT22;9830;41.876;23.474;2023-05-07T10:32:56;26.10;43.00
19389;DHT22;9830;41.876;23.474;2023-05-07T10:35:32;27.10;39.30
19389;DHT22;9830;41.876;23.474;2023-05-07T10:38:02;27.60;37.50
19389;DHT22;9830;41.876;23.474;2023-05-07T10:40:28;27.70;38.40
19389;DHT22;9830;41.876;23.474;2023-05-07T10:42:59;27.90;37.90
19389;DHT22;9830;41.876;23.474;2023-05-07T10:45:28;27.80;38.90
19389;DHT22;9830;41.876;23.474;2023-05-07T10:48:08;27.90;37.70
19389;DHT22;9830;41.876;23.474;2023-05-07T10:50:35;28.20;35.60
19389;DHT22;9830;41.876;23.474;2023-05-07T10:55:48;28.10;35.80
19389;DHT22;9830;41.876;23.474;2023-05-07T10:58:29;28.50;36.10
19389;DHT22;9830;41.876;23.474;2023-05-07T11:01:03;28.30;35.80
19389;DHT22;9830;41.876;23.474;2023-05-07T11:03:29;28.00;36.20
19389;DHT22;9830;41.876;23.474;2023-05-07T11:06:15;26.60;36.00
19389;DHT22;9830;41.876;23.474;2023-05-07T11:08:56;26.20;37.40
19389;DHT22;9830;41.876;23.474;2023-05-07T11:14:09;25.00;39.00
19389;DHT22;9830;41.876;23.474;2023-05-07T11:16:35;25.30;39.30
19389;DHT22;9830;41.876;23.474;2023-05-07T11:19:03;25.60;38.60
19389;DHT22;9830;41.876;23.474;2023-05-07T11:21:36;25.50;38.70
19389;DHT22;9830;41.876;23.474;2023-05-07T11:24:03;25.50;39.70
19389;DHT22;9830;41.876;23.474;2023-05-07T11:26:31;25.50;39.10
19389;DHT22;9830;41.876;23.474;2023-05-07T11:29:11;25.60;40.80
19389;DHT22;9830;41.876;23.474;2023-05-07T11:31:37;26.00;39.70
19389;DHT22;9830;41.876;23.474;2023-05-07T11:34:03;26.60;38.10
19389;DHT22;9830;41.876;23.474;2023-05-07T11:36:32;27.10;37.60
19389;DHT22;9830;41.876;23.474;2023-05-07T11:38:58;26.80;38.70
19389;DHT22;9830;41.876;23.474;2023-05-07T11:41:36;27.10;36.10
19389;DHT22;9830;41.876;23.474;2023-05-07T11:44:02;26.90;36.40
19389;DHT22;9830;41.876;23.474;2023-05-07T11:46:28;26.50;37.50
19389;DHT22;9830;41.876;23.474;2023-05-07T11:48:54;26.00;35.00
19389;DHT22;9830;41.876;23.474;2023-05-07T11:51:22;25.60;37.60
19389;DHT22;9830;41.876;23.474;2023-05-07T11:53:48;25.30;38.80
19389;DHT22;9830;41.876;23.474;2023-05-07T11:56:16;25.80;39.50
19389;DHT22;9830;41.876;23.474;2023-05-07T11:58:43;26.10;38.80
19389;DHT22;9830;41.876;23.474;2023-05-07T12:01:10;26.50;37.30
19389;DHT22;9830;41.876;23.474;2023-05-07T12:03:37;26.50;39.60
19389;DHT22;9830;41.876;23.474;2023-05-07T12:06:05;26.90;40.40
19389;DHT22;9830;41.876;23.474;2023-05-07T12:08:32;27.00;39.10
19389;DHT22;9830;41.876;23.474;2023-05-07T12:10:58;26.90;37.50
19389;DHT22;9830;41.876;23.474;2023-05-07T12:13:25;26.70;39.50
19389;DHT22;9830;41.876;23.474;2023-05-07T12:15:52;27.00;40.10
19389;DHT22;9830;41.876;23.474;2023-05-07T12:18:18;26.40;40.20
19389;DHT22;9830;41.876;23.474;2023-05-07T12:20:44;26.50;37.30
19389;DHT22;9830;41.876;23.474;2023-05-07T12:23:12;26.80;35.60
19389;DHT22;9830;41.876;23.474;2023-05-07T12:25:38;26.80;36.70
19389;DHT22;9830;41.876;23.474;2023-05-07T12:28:05;26.80;36.80
19389;DHT22;9830;41.876;23.474;2023-05-07T12:30:38;26.50;37.20
19389;DHT22;9830;41.876;23.474;2023-05-07T12:33:04;26.30;37.70
19389;DHT22;9830;41.876;23.474;2023-05-07T12:35:32;26.50;37.00
19389;DHT22;9830;41.876;23.474;2023-05-07T12:37:58;26.40;35.70
19389;DHT22;9830;41.876;23.474;2023-05-07T12:40:39;26.40;37.40
19389;DHT22;9830;41.876;23.474;2023-05-07T12:43:05;26.50;36.00
19389;DHT22;9830;41.876;23.474;2023-05-07T12:45:30;26.80;36.30
19389;DHT22;9830;41.876;23.474;2023-05-07T12:47:57;26.80;35.90
19389;DHT22;9830;41.876;23.474;2023-05-07T12:50:31;26.90;37.40
19389;DHT22;9830;41.876;23.474;2023-05-07T12:52:57;26.50;37.10
19389;DHT22;9830;41.876;23.474;2023-05-07T12:55:23;26.40;37.90
19389;DHT22;9830;41.876;23.474;2023-05-07T12:57:49;26.20;35.60
19389;DHT22;9830;41.876;23.474;2023-05-07T13:00:33;26.20;38.70
19389;DHT22;9830;41.876;23.474;2023-05-07T13:02:59;26.10;37.40
19389;DHT22;9830;41.876;23.474;2023-05-07T13:05:24;26.20;37.70
19389;DHT22;9830;41.876;23.474;2023-05-07T13:07:54;26.50;34.80
19389;DHT22;9830;41.876;23.474;2023-05-07T13:10:21;26.70;38.80
19389;DHT22;9830;41.876;23.474;2023-05-07T13:12:46;26.60;35.90
19389;DHT22;9830;41.876;23.474;2023-05-07T13:15:12;26.40;36.60
19389;DHT22;9830;41.876;23.474;2023-05-07T13:17:38;26.70;38.30
19389;DHT22;9830;41.876;23.474;2023-05-07T13:20:04;26.30;34.80
19389;DHT22;9830;41.876;23.474;2023-05-07T13:22:31;26.50;35.90
19389;DHT22;9830;41.876;23.474;2023-05-07T13:24:57;26.50;35.10
19389;DHT22;9830;41.876;23.474;2023-05-07T13:27:22;26.40;38.30
19389;DHT22;9830;41.876;23.474;2023-05-07T13:29:48;26.40;37.70
19389;DHT22;9830;41.876;23.474;2023-05-07T13:32:14;26.30;36.40
19389;DHT22;9830;41.876;23.474;2023-05-07T13:34:39;26.70;35.20
19389;DHT22;9830;41.876;23.474;2023-05-07T13:37:06;26.80;35.30
19389;DHT22;9830;41.876;23.474;2023-05-07T13:39:33;26.60;35.30
19389;DHT22;9830;41.876;23.474;2023-05-07T13:41:59;26.80;34.80
19389;DHT22;9830;41.876;23.474;2023-05-07T13:44:26;26.50;36.90
19389;DHT22;9830;41.876;23.474;2023-05-07T13:46:51;26.40;36.20
19389;DHT22;9830;41.876;23.474;2023-05-07T13:49:18;26.20;36.10
19389;DHT22;9830;41.876;23.474;2023-05-07T13:51:44;26.10;36.40
19389;DHT22;9830;41.876;23.474;2023-05-07T13:54:11;25.80;35.10
19389;DHT22;9830;41.876;23.474;2023-05-07T13:56:37;26.00;37.10
19389;DHT22;9830;41.876;23.474;2023-05-07T13:59:03;25.80;34.90
19389;DHT22;9830;41.876;23.474;2023-05-07T14:01:29;25.70;34.80
19389;DHT22;9830;41.876;23.474;2023-05-07T14:03:56;25.60;36.40
19389;DHT22;9830;41.876;23.474;2023-05-07T14:06:22;25.30;36.00
19389;DHT22;9830;41.876;23.474;2023-05-07T14:08:48;24.90;35.40
19389;DHT22;9830;41.876;23.474;2023-05-07T14:11:13;25.00;37.90
19389;DHT22;9830;41.876;23.474;2023-05-07T14:13:40;24.90;35.60
19389;DHT22;9830;41.876;23.474;2023-05-07T14:16:06;24.90;36.40
19389;DHT22;9830;41.876;23.474;2023-05-07T14:18:32;24.80;37.80
19389;DHT22;9830;41.876;23.474;2023-05-07T14:20:59;24.70;37.90
19389;DHT22;9830;41.876;23.474;2023-05-07T14:23:25;24.70;39.10
19389;DHT22;9830;41.876;23.474;2023-05-07T14:25:52;24.50;36.00
19389;DHT22;9830;41.876;23.474;2023-05-07T14:28:19;24.40;38.60
19389;DHT22;9830;41.876;23.474;2023-05-07T14:30:45;24.40;37.50
19389;DHT22;9830;41.876;23.474;2023-05-07T14:33:10;24.30;37.40
19389;DHT22;9830;41.876;23.474;2023-05-07T14:35:36;24.40;37.30
19389;DHT22;9830;41.876;23.474;2023-05-07T14:38:02;24.50;39.20
19389;DHT22;9830;41.876;23.474;2023-05-07T14:40:28;24.40;35.80
19389;DHT22;9830;41.876;23.474;2023-05-07T14:42:53;24.50;36.60
19389;DHT22;9830;41.876;23.474;2023-05-07T14:45:20;24.50;37.80
19389;DHT22;9830;41.876;23.474;2023-05-07T14:47:46;24.40;36.40
19389;DHT22;9830;41.876;23.474;2023-05-07T14:50:12;24.20;35.50
19389;DHT22;9830;41.876;23.474;2023-05-07T14:52:37;24.10;34.70
19389;DHT22;9830;41.876;23.474;2023-05-07T14:55:04;23.90;35.10
19389;DHT22;9830;41.876;23.474;2023-05-07T14:57:30;23.80;36.20
19389;DHT22;9830;41.876;23.474;2023-05-07T15:00:00;23.80;37.10
19389;DHT22;9830;41.876;23.474;2023-05-07T15:02:26;23.80;37.40
19389;DHT22;9830;41.876;23.474;2023-05-07T15:04:52;23.70;36.90
19389;DHT22;9830;41.876;23.474;2023-05-07T15:07:18;23.60;38.70
19389;DHT22;9830;41.876;23.474;2023-05-07T15:09:44;23.50;37.00
19389;DHT22;9830;41.876;23.474;2023-05-07T15:12:10;23.50;37.30
19389;DHT22;9830;41.876;23.474;2023-05-07T15:14:37;23.40;37.50
19389;DHT22;9830;41.876;23.474;2023-05-07T15:17:04;23.40;38.10
19389;DHT22;9830;41.876;23.474;2023-05-07T15:19:30;23.40;38.70
19389;DHT22;9830;41.876;23.474;2023-05-07T15:21:57;23.30;39.50
19389;DHT22;9830;41.876;23.474;2023-05-07T15:24:23;23.20;40.00
19389;DHT22;9830;41.876;23.474;2023-05-07T15:26:51;23.10;39.00
19389;DHT22;9830;41.876;23.474;2023-05-07T15:29:17;23.00;39.20
19389;DHT22;9830;41.876;23.474;2023-05-07T15:31:42;23.00;39.90
19389;DHT22;9830;41.876;23.474;2023-05-07T15:34:08;22.90;41.10
19389;DHT22;9830;41.876;23.474;2023-05-07T15:36:34;22.90;40.30
19389;DHT22;9830;41.876;23.474;2023-05-07T15:39:00;22.80;40.70